sensor_id;sensor_type;location;lat;lon;timestamp;P1;P2;P0
49914;PMS5003;35806;47.958;13.158;2023-04-28T00:00:51;19;19;
49914;PMS5003;35806;47.958;13.158;2023-04-28T00:03:17;21;20;
49914;PMS5003;35806;47.958;13.158;2023-04-28T00:05:44;21;20;
49914;PMS5003;35806;47.958;13.158;2023-04-28T00:08:12;20;20;
49914;PMS5003;35806;47.958;13.158;2023-04-28T00:10:40;23;22;
49914;PMS5003;35806;47.958;13.158;2023-04-28T00:13:08;20;18;
49914;PMS5003;35806;47.958;13.158;2023-04-28T00:15:35;20;20;
49914;PMS5003;35806;47.958;13.158;2023-04-28T00:18:03;20;20;
49914;PMS5003;35806;47.958;13.158;2023-04-28T00:20:30;18;18;
49914;PMS5003;35806;47.958;13.158;2023-04-28T00:22:58;21;20;
49914;PMS5003;35806;47.958;13.158;2023-04-28T00:25:25;19;19;
49914;PMS5003;35806;47.958;13.158;2023-04-28T00:27:53;20;19;
49914;PMS5003;35806;47.958;13.158;2023-04-28T00:30:20;17;17;
49914;PMS5003;35806;47.958;13.158;2023-04-28T00:32:47;21;21;
49914;PMS5003;35806;47.958;13.158;2023-04-28T00:35:15;18;17;
49914;PMS5003;35806;47.958;13.158;2023-04-28T00:37:42;18;18;
49914;PMS5003;35806;47.958;13.158;2023-04-28T00:40:10;21;18;
49914;PMS5003;35806;47.958;13.158;2023-04-28T00:42:38;21;19;
49914;PMS5003;35806;47.958;13.158;2023-04-28T00:45:06;22;19;
49914;PMS5003;35806;47.958;13.158;2023-04-28T00:47:38;21;19;
49914;PMS5003;35806;47.958;13.158;2023-04-28T00:50:09;19;19;
49914;PMS5003;35806;47.958;13.158;2023-04-28T00:52:37;18;18;
49914;PMS5003;35806;47.958;13.158;2023-04-28T00:55:05;21;18;
49914;PMS5003;35806;47.958;13.158;2023-04-28T00:57:34;18;16;
49914;PMS5003;35806;47.958;13.158;2023-04-28T01:15:37;22;19;
49914;PMS5003;35806;47.958;13.158;2023-04-28T01:18:04;19;19;
49914;PMS5003;35806;47.958;13.158;2023-04-28T01:20:32;16;16;
49914;PMS5003;35806;47.958;13.158;2023-04-28T01:22:59;16;16;
49914;PMS5003;35806;47.958;13.158;2023-04-28T01:25:27;18;16;
49914;PMS5003;35806;47.958;13.158;2023-04-28T01:27:54;15;15;
49914;PMS5003;35806;47.958;13.158;2023-04-28T01:30:21;20;16;
49914;PMS5003;35806;47.958;13.158;2023-04-28T01:32:48;17;17;
49914;PMS5003;35806;47.958;13.158;2023-04-28T01:35:15;17;17;
49914;PMS5003;35806;47.958;13.158;2023-04-28T01:37:43;20;17;
49914;PMS5003;35806;47.958;13.158;2023-04-28T01:40:10;17;17;
49914;PMS5003;35806;47.958;13.158;2023-04-28T01:42:38;19;15;
49914;PMS5003;35806;47.958;13.158;2023-04-28T01:45:06;24;22;
49914;PMS5003;35806;47.958;13.158;2023-04-28T01:47:41;17;17;
49914;PMS5003;35806;47.958;13.158;2023-04-28T01:50:08;25;24;
49914;PMS5003;35806;47.958;13.158;2023-04-28T01:52:40;18;18;
49914;PMS5003;35806;47.958;13.158;2023-04-28T01:55:08;15;15;
49914;PMS5003;35806;47.958;13.158;2023-04-28T01:57:36;18;16;
49914;PMS5003;35806;47.958;13.158;2023-04-28T02:00:04;17;17;
49914;PMS5003;35806;47.958;13.158;2023-04-28T02:02:32;25;21;
49914;PMS5003;35806;47.958;13.158;2023-04-28T02:04:59;30;20;
49914;PMS5003;35806;47.958;13.158;2023-04-28T02:07:26;25;20;
49914;PMS5003;35806;47.958;13.158;2023-04-28T02:09:53;22;18;
49914;PMS5003;35806;47.958;13.158;2023-04-28T02:12:21;20;18;
49914;PMS5003;35806;47.958;13.158;2023-04-28T02:14:49;18;17;
49914;PMS5003;35806;47.958;13.158;2023-04-28T02:17:16;15;15;
49914;PMS5003;35806;47.958;13.158;2023-04-28T02:19:44;18;18;
49914;PMS5003;35806;47.958;13.158;2023-04-28T02:22:11;17;15;
49914;PMS5003;35806;47.958;13.158;2023-04-28T02:24:38;17;16;
49914;PMS5003;35806;47.958;13.158;2023-04-28T02:27:05;15;14;
49914;PMS5003;35806;47.958;13.158;2023-04-28T02:29:33;17;17;
49914;PMS5003;35806;47.958;13.158;2023-04-28T02:32:01;13;12;
49914;PMS5003;35806;47.958;13.158;2023-04-28T02:34:28;18;18;
49914;PMS5003;35806;47.958;13.158;2023-04-28T02:36:56;19;17;
49914;PMS5003;35806;47.958;13.158;2023-04-28T02:39:23;15;15;
49914;PMS5003;35806;47.958;13.158;2023-04-28T02:41:50;17;15;
49914;PMS5003;35806;47.958;13.158;2023-04-28T02:44:18;18;15;
49914;PMS5003;35806;47.958;13.158;2023-04-28T02:46:46;15;14;
49914;PMS5003;35806;47.958;13.158;2023-04-28T02:49:14;18;18;
49914;PMS5003;35806;47.958;13.158;2023-04-28T02:51:41;16;15;
49914;PMS5003;35806;47.958;13.158;2023-04-28T02:54:08;17;15;
49914;PMS5003;35806;47.958;13.158;2023-04-28T02:56:36;12;12;
49914;PMS5003;35806;47.958;13.158;2023-04-28T02:59:04;13;13;
49914;PMS5003;35806;47.958;13.158;2023-04-28T03:01:31;12;12;
49914;PMS5003;35806;47.958;13.158;2023-04-28T03:03:59;13;13;
49914;PMS5003;35806;47.958;13.158;2023-04-28T03:06:27;15;14;
49914;PMS5003;35806;47.958;13.158;2023-04-28T03:08:54;18;18;
49914;PMS5003;35806;47.958;13.158;2023-04-28T03:11:21;14;14;
49914;PMS5003;35806;47.958;13.158;2023-04-28T03:13:48;12;12;
49914;PMS5003;35806;47.958;13.158;2023-04-28T03:16:16;13;11;
49914;PMS5003;35806;47.958;13.158;2023-04-28T03:18:43;15;15;
49914;PMS5003;35806;47.958;13.158;2023-04-28T03:21:10;12;12;
49914;PMS5003;35806;47.958;13.158;2023-04-28T03:23:37;13;12;
49914;PMS5003;35806;47.958;13.158;2023-04-28T03:26:05;12;12;
49914;PMS5003;35806;47.958;13.158;2023-04-28T03:28:33;12;11;
49914;PMS5003;35806;47.958;13.158;2023-04-28T03:30:59;12;12;
49914;PMS5003;35806;47.958;13.158;2023-04-28T03:33:27;15;13;
49914;PMS5003;35806;47.958;13.158;2023-04-28T03:35:54;12;12;
49914;PMS5003;35806;47.958;13.158;2023-04-28T03:38:22;15;13;
49914;PMS5003;35806;47.958;13.158;2023-04-28T03:40:50;14;14;
49914;PMS5003;35806;47.958;13.158;2023-04-28T03:43:17;11;9;
49914;PMS5003;35806;47.958;13.158;2023-04-28T03:45:44;11;11;
49914;PMS5003;35806;47.958;13.158;2023-04-28T03:48:12;11;11;
49914;PMS5003;35806;47.958;13.158;2023-04-28T03:50:39;11;10;
49914;PMS5003;35806;47.958;13.158;2023-04-28T03:53:07;8;8;
49914;PMS5003;35806;47.958;13.158;2023-04-28T03:55:34;9;9;
49914;PMS5003;35806;47.958;13.158;2023-04-28T03:58:02;10;9;
49914;PMS5003;35806;47.958;13.158;2023-04-28T04:00:29;8;8;
49914;PMS5003;35806;47.958;13.158;2023-04-28T04:02:57;11;11;
49914;PMS5003;35806;47.958;13.158;2023-04-28T04:05:24;14;13;
49914;PMS5003;35806;47.958;13.158;2023-04-28T04:07:51;14;14;
49914;PMS5003;35806;47.958;13.158;2023-04-28T04:10:19;12;12;
49914;PMS5003;35806;47.958;13.158;2023-04-28T04:12:46;20;19;
49914;PMS5003;35806;47.958;13.158;2023-04-28T04:15:14;17;16;
49914;PMS5003;35806;47.958;13.158;2023-04-28T04:17:41;13;13;
49914;PMS5003;35806;47.958;13.158;2023-04-28T04:20:09;13;13;
49914;PMS5003;35806;47.958;13.158;2023-04-28T04:22:46;12;12;
49914;PMS5003;35806;47.958;13.158;2023-04-28T04:25:13;15;15;
49914;PMS5003;35806;47.958;13.158;2023-04-28T04:27:40;11;11;
49914;PMS5003;35806;47.958;13.158;2023-04-28T04:30:08;14;13;
49914;PMS5003;35806;47.958;13.158;2023-04-28T04:32:36;20;16;
49914;PMS5003;35806;47.958;13.158;2023-04-28T04:35:04;17;16;
49914;PMS5003;35806;47.958;13.158;2023-04-28T04:37:32;13;13;
49914;PMS5003;35806;47.958;13.158;2023-04-28T04:39:59;15;15;
49914;PMS5003;35806;47.958;13.158;2023-04-28T04:42:27;15;13;
49914;PMS5003;35806;47.958;13.158;2023-04-28T04:44:54;15;14;
49914;PMS5003;35806;47.958;13.158;2023-04-28T04:47:26;15;15;
49914;PMS5003;35806;47.958;13.158;2023-04-28T04:49:54;17;16;
49914;PMS5003;35806;47.958;13.158;2023-04-28T04:52:21;16;13;
49914;PMS5003;35806;47.958;13.158;2023-04-28T04:54:48;14;12;
49914;PMS5003;35806;47.958;13.158;2023-04-28T04:57:16;15;14;
49914;PMS5003;35806;47.958;13.158;2023-04-28T04:59:43;19;16;
49914;PMS5003;35806;47.958;13.158;2023-04-28T05:02:10;17;14;
49914;PMS5003;35806;47.958;13.158;2023-04-28T05:04:38;19;19;
49914;PMS5003;35806;47.958;13.158;2023-04-28T05:07:06;16;14;
49914;PMS5003;35806;47.958;13.158;2023-04-28T05:09:33;17;17;
49914;PMS5003;35806;47.958;13.158;2023-04-28T05:12:00;18;15;
49914;PMS5003;35806;47.958;13.158;2023-04-28T05:14:28;16;14;
49914;PMS5003;35806;47.958;13.158;2023-04-28T05:16:55;18;18;
49914;PMS5003;35806;47.958;13.158;2023-04-28T05:19:23;21;18;
49914;PMS5003;35806;47.958;13.158;2023-04-28T05:21:50;21;19;
49914;PMS5003;35806;47.958;13.158;2023-04-28T05:24:19;48;42;
49914;PMS5003;35806;47.958;13.158;2023-04-28T05:26:46;38;34;
49914;PMS5003;35806;47.958;13.158;2023-04-28T05:29:14;23;19;
49914;PMS5003;35806;47.958;13.158;2023-04-28T05:31:41;21;20;
49914;PMS5003;35806;47.958;13.158;2023-04-28T05:34:08;26;24;
49914;PMS5003;35806;47.958;13.158;2023-04-28T05:36:36;20;19;
49914;PMS5003;35806;47.958;13.158;2023-04-28T05:39:03;23;18;
49914;PMS5003;35806;47.958;13.158;2023-04-28T05:41:31;21;19;
49914;PMS5003;35806;47.958;13.158;2023-04-28T05:43:58;18;17;
49914;PMS5003;35806;47.958;13.158;2023-04-28T05:46:25;19;16;
49914;PMS5003;35806;47.958;13.158;2023-04-28T05:48:52;17;16;
49914;PMS5003;35806;47.958;13.158;2023-04-28T05:51:19;19;18;
49914;PMS5003;35806;47.958;13.158;2023-04-28T05:53:47;18;16;
49914;PMS5003;35806;47.958;13.158;2023-04-28T05:56:14;20;20;
49914;PMS5003;35806;47.958;13.158;2023-04-28T05:58:41;14;14;
49914;PMS5003;35806;47.958;13.158;2023-04-28T06:01:09;12;12;
49914;PMS5003;35806;47.958;13.158;2023-04-28T06:03:37;14;14;
49914;PMS5003;35806;47.958;13.158;2023-04-28T06:06:04;16;12;
49914;PMS5003;35806;47.958;13.158;2023-04-28T06:08:32;17;15;
49914;PMS5003;35806;47.958;13.158;2023-04-28T06:11:00;12;12;
49914;PMS5003;35806;47.958;13.158;2023-04-28T06:13:27;12;12;
49914;PMS5003;35806;47.958;13.158;2023-04-28T06:15:55;16;15;
49914;PMS5003;35806;47.958;13.158;2023-04-28T06:18:22;18;16;
49914;PMS5003;35806;47.958;13.158;2023-04-28T06:20:49;16;16;
49914;PMS5003;35806;47.958;13.158;2023-04-28T06:23:17;13;13;
49914;PMS5003;35806;47.958;13.158;2023-04-28T06:25:44;20;16;
49914;PMS5003;35806;47.958;13.158;2023-04-28T06:28:11;14;11;
49914;PMS5003;35806;47.958;13.158;2023-04-28T06:30:38;12;12;
49914;PMS5003;35806;47.958;13.158;2023-04-28T06:33:06;14;14;
49914;PMS5003;35806;47.958;13.158;2023-04-28T06:35:33;18;17;
49914;PMS5003;35806;47.958;13.158;2023-04-28T06:38:01;13;11;
49914;PMS5003;35806;47.958;13.158;2023-04-28T06:40:29;14;14;
49914;PMS5003;35806;47.958;13.158;2023-04-28T06:42:56;14;14;
49914;PMS5003;35806;47.958;13.158;2023-04-28T06:45:24;15;15;
49914;PMS5003;35806;47.958;13.158;2023-04-28T06:47:52;11;11;
49914;PMS5003;35806;47.958;13.158;2023-04-28T06:50:19;12;12;
49914;PMS5003;35806;47.958;13.158;2023-04-28T06:52:46;13;12;
49914;PMS5003;35806;47.958;13.158;2023-04-28T06:55:15;15;13;
49914;PMS5003;35806;47.958;13.158;2023-04-28T06:57:42;14;13;
49914;PMS5003;35806;47.958;13.158;2023-04-28T07:00:11;10;10;
49914;PMS5003;35806;47.958;13.158;2023-04-28T07:02:38;17;14;
49914;PMS5003;35806;47.958;13.158;2023-04-28T07:05:06;10;10;
49914;PMS5003;35806;47.958;13.158;2023-04-28T07:07:35;21;19;
49914;PMS5003;35806;47.958;13.158;2023-04-28T07:10:03;14;14;
49914;PMS5003;35806;47.958;13.158;2023-04-28T07:12:31;16;14;
49914;PMS5003;35806;47.958;13.158;2023-04-28T07:14:59;16;15;
49914;PMS5003;35806;47.958;13.158;2023-04-28T07:17:26;11;11;
49914;PMS5003;35806;47.958;13.158;2023-04-28T07:19:54;16;14;
49914;PMS5003;35806;47.958;13.158;2023-04-28T07:22:21;12;10;
49914;PMS5003;35806;47.958;13.158;2023-04-28T07:24:49;10;10;
49914;PMS5003;35806;47.958;13.158;2023-04-28T07:27:16;10;10;
49914;PMS5003;35806;47.958;13.158;2023-04-28T07:29:44;11;11;
49914;PMS5003;35806;47.958;13.158;2023-04-28T07:32:11;15;14;
49914;PMS5003;35806;47.958;13.158;2023-04-28T07:34:39;14;13;
49914;PMS5003;35806;47.958;13.158;2023-04-28T07:37:06;10;10;
49914;PMS5003;35806;47.958;13.158;2023-04-28T07:39:34;14;12;
49914;PMS5003;35806;47.958;13.158;2023-04-28T07:42:01;13;11;
49914;PMS5003;35806;47.958;13.158;2023-04-28T07:44:29;9;9;
49914;PMS5003;35806;47.958;13.158;2023-04-28T07:46:58;13;12;
49914;PMS5003;35806;47.958;13.158;2023-04-28T07:49:26;8;8;
49914;PMS5003;35806;47.958;13.158;2023-04-28T07:51:54;10;10;
49914;PMS5003;35806;47.958;13.158;2023-04-28T07:54:22;19;16;
49914;PMS5003;35806;47.958;13.158;2023-04-28T07:56:49;14;14;
49914;PMS5003;35806;47.958;13.158;2023-04-28T07:59:17;16;14;
49914;PMS5003;35806;47.958;13.158;2023-04-28T08:01:44;10;10;
49914;PMS5003;35806;47.958;13.158;2023-04-28T08:04:12;10;10;
49914;PMS5003;35806;47.958;13.158;2023-04-28T08:06:39;11;10;
49914;PMS5003;35806;47.958;13.158;2023-04-28T08:09:07;10;10;
49914;PMS5003;35806;47.958;13.158;2023-04-28T08:11:34;9;9;
49914;PMS5003;35806;47.958;13.158;2023-04-28T08:14:01;10;8;
49914;PMS5003;35806;47.958;13.158;2023-04-28T08:16:29;9;9;
49914;PMS5003;35806;47.958;13.158;2023-04-28T08:18:57;9;8;
49914;PMS5003;35806;47.958;13.158;2023-04-28T08:21:25;9;9;
49914;PMS5003;35806;47.958;13.158;2023-04-28T08:23:52;15;14;
49914;PMS5003;35806;47.958;13.158;2023-04-28T08:26:19;16;14;
49914;PMS5003;35806;47.958;13.158;2023-04-28T08:28:47;9;9;
49914;PMS5003;35806;47.958;13.158;2023-04-28T08:31:15;8;8;
49914;PMS5003;35806;47.958;13.158;2023-04-28T08:33:42;10;10;
49914;PMS5003;35806;47.958;13.158;2023-04-28T08:36:10;9;8;
49914;PMS5003;35806;47.958;13.158;2023-04-28T08:38:37;14;13;
49914;PMS5003;35806;47.958;13.158;2023-04-28T08:41:05;17;17;
49914;PMS5003;35806;47.958;13.158;2023-04-28T08:43:32;13;12;
49914;PMS5003;35806;47.958;13.158;2023-04-28T08:46:03;25;21;
49914;PMS5003;35806;47.958;13.158;2023-04-28T08:48:36;23;21;
49914;PMS5003;35806;47.958;13.158;2023-04-28T08:51:06;10;10;
49914;PMS5003;35806;47.958;13.158;2023-04-28T08:53:36;10;7;
49914;PMS5003;35806;47.958;13.158;2023-04-28T08:56:05;8;8;
49914;PMS5003;35806;47.958;13.158;2023-04-28T08:58:39;12;10;
49914;PMS5003;35806;47.958;13.158;2023-04-28T09:01:06;9;9;
49914;PMS5003;35806;47.958;13.158;2023-04-28T09:03:39;11;8;
49914;PMS5003;35806;47.958;13.158;2023-04-28T09:06:06;8;8;
49914;PMS5003;35806;47.958;13.158;2023-04-28T09:08:34;15;13;
49914;PMS5003;35806;47.958;13.158;2023-04-28T09:11:04;16;14;
49914;PMS5003;35806;47.958;13.158;2023-04-28T09:13:32;14;14;
49914;PMS5003;35806;47.958;13.158;2023-04-28T09:16:00;13;10;
49914;PMS5003;35806;47.958;13.158;2023-04-28T09:18:28;13;12;
49914;PMS5003;35806;47.958;13.158;2023-04-28T09:21:01;10;10;
49914;PMS5003;35806;47.958;13.158;2023-04-28T09:23:29;14;12;
49914;PMS5003;35806;47.958;13.158;2023-04-28T09:25:57;10;10;
49914;PMS5003;35806;47.958;13.158;2023-04-28T09:28:25;9;7;
49914;PMS5003;35806;47.958;13.158;2023-04-28T09:30:53;7;7;
49914;PMS5003;35806;47.958;13.158;2023-04-28T09:33:20;6;6;
49914;PMS5003;35806;47.958;13.158;2023-04-28T09:35:48;5;5;
49914;PMS5003;35806;47.958;13.158;2023-04-28T09:38:16;10;10;
49914;PMS5003;35806;47.958;13.158;2023-04-28T09:40:49;6;6;
49914;PMS5003;35806;47.958;13.158;2023-04-28T09:43:25;7;7;
49914;PMS5003;35806;47.958;13.158;2023-04-28T09:45:54;7;7;
49914;PMS5003;35806;47.958;13.158;2023-04-28T09:48:26;6;6;
49914;PMS5003;35806;47.958;13.158;2023-04-28T09:50:55;8;8;
49914;PMS5003;35806;47.958;13.158;2023-04-28T09:53:22;8;8;
49914;PMS5003;35806;47.958;13.158;2023-04-28T09:55:51;7;5;
49914;PMS5003;35806;47.958;13.158;2023-04-28T09:58:18;17;11;
49914;PMS5003;35806;47.958;13.158;2023-04-28T10:00:46;12;9;
49914;PMS5003;35806;47.958;13.158;2023-04-28T10:03:20;8;8;
49914;PMS5003;35806;47.958;13.158;2023-04-28T10:05:49;11;11;
49914;PMS5003;35806;47.958;13.158;2023-04-28T10:08:18;9;9;
49914;PMS5003;35806;47.958;13.158;2023-04-28T10:10:46;7;7;
49914;PMS5003;35806;47.958;13.158;2023-04-28T10:13:15;8;7;
49914;PMS5003;35806;47.958;13.158;2023-04-28T10:15:43;7;7;
49914;PMS5003;35806;47.958;13.158;2023-04-28T10:18:11;8;8;
49914;PMS5003;35806;47.958;13.158;2023-04-28T10:20:40;10;10;
49914;PMS5003;35806;47.958;13.158;2023-04-28T10:23:18;10;10;
49914;PMS5003;35806;47.958;13.158;2023-04-28T10:26:02;11;11;
49914;PMS5003;35806;47.958;13.158;2023-04-28T10:28:36;13;11;
49914;PMS5003;35806;47.958;13.158;2023-04-28T10:31:10;14;14;
49914;PMS5003;35806;47.958;13.158;2023-04-28T10:33:39;7;7;
49914;PMS5003;35806;47.958;13.158;2023-04-28T10:36:07;10;10;
49914;PMS5003;35806;47.958;13.158;2023-04-28T10:38:35;12;11;
49914;PMS5003;35806;47.958;13.158;2023-04-28T10:41:34;13;13;
49914;PMS5003;35806;47.958;13.158;2023-04-28T10:44:01;10;9;
49914;PMS5003;35806;47.958;13.158;2023-04-28T10:47:07;9;9;
49914;PMS5003;35806;47.958;13.158;2023-04-28T10:50:08;7;7;
49914;PMS5003;35806;47.958;13.158;2023-04-28T10:52:51;9;8;
49914;PMS5003;35806;47.958;13.158;2023-04-28T10:55:27;9;9;
49914;PMS5003;35806;47.958;13.158;2023-04-28T10:58:29;9;8;
49914;PMS5003;35806;47.958;13.158;2023-04-28T11:01:15;11;9;
49914;PMS5003;35806;47.958;13.158;2023-04-28T11:03:52;10;10;
49914;PMS5003;35806;47.958;13.158;2023-04-28T11:06:21;10;8;
49914;PMS5003;35806;47.958;13.158;2023-04-28T11:08:49;10;9;
49914;PMS5003;35806;47.958;13.158;2023-04-28T11:11:18;9;9;
49914;PMS5003;35806;47.958;13.158;2023-04-28T11:13:48;8;7;
49914;PMS5003;35806;47.958;13.158;2023-04-28T11:16:17;10;10;
49914;PMS5003;35806;47.958;13.158;2023-04-28T11:18:48;9;9;
49914;PMS5003;35806;47.958;13.158;2023-04-28T11:21:17;11;8;
49914;PMS5003;35806;47.958;13.158;2023-04-28T11:23:45;10;10;
49914;PMS5003;35806;47.958;13.158;2023-04-28T11:26:13;11;11;
49914;PMS5003;35806;47.958;13.158;2023-04-28T11:28:46;10;10;
49914;PMS5003;35806;47.958;13.158;2023-04-28T11:31:15;14;10;
49914;PMS5003;35806;47.958;13.158;2023-04-28T11:33:43;12;12;
49914;PMS5003;35806;47.958;13.158;2023-04-28T11:36:29;16;14;
49914;PMS5003;35806;47.958;13.158;2023-04-28T11:38:58;17;15;
49914;PMS5003;35806;47.958;13.158;2023-04-28T11:41:25;14;14;
49914;PMS5003;35806;47.958;13.158;2023-04-28T11:43:53;8;7;
49914;PMS5003;35806;47.958;13.158;2023-04-28T11:46:21;11;8;
49914;PMS5003;35806;47.958;13.158;2023-04-28T11:48:58;14;14;
49914;PMS5003;35806;47.958;13.158;2023-04-28T11:51:31;11;10;
49914;PMS5003;35806;47.958;13.158;2023-04-28T11:54:01;6;6;
49914;PMS5003;35806;47.958;13.158;2023-04-28T11:56:29;8;8;
49914;PMS5003;35806;47.958;13.158;2023-04-28T11:59:00;8;7;
49914;PMS5003;35806;47.958;13.158;2023-04-28T12:01:30;8;8;
49914;PMS5003;35806;47.958;13.158;2023-04-28T12:03:58;9;9;
49914;PMS5003;35806;47.958;13.158;2023-04-28T12:06:25;8;8;
49914;PMS5003;35806;47.958;13.158;2023-04-28T12:08:53;9;8;
49914;PMS5003;35806;47.958;13.158;2023-04-28T12:11:21;73;65;
49914;PMS5003;35806;47.958;13.158;2023-04-28T12:14:04;49;44;
49914;PMS5003;35806;47.958;13.158;2023-04-28T12:16:36;185;140;
49914;PMS5003;35806;47.958;13.158;2023-04-28T12:19:05;134;118;
49914;PMS5003;35806;47.958;13.158;2023-04-28T12:21:32;13;11;
49914;PMS5003;35806;47.958;13.158;2023-04-28T12:23:59;9;9;
49914;PMS5003;35806;47.958;13.158;2023-04-28T12:26:26;14;13;
49914;PMS5003;35806;47.958;13.158;2023-04-28T12:28:54;21;19;
49914;PMS5003;35806;47.958;13.158;2023-04-28T12:31:21;57;57;
49914;PMS5003;35806;47.958;13.158;2023-04-28T12:33:49;12;11;
49914;PMS5003;35806;47.958;13.158;2023-04-28T12:36:16;12;12;
49914;PMS5003;35806;47.958;13.158;2023-04-28T12:38:46;10;8;
49914;PMS5003;35806;47.958;13.158;2023-04-28T12:41:13;10;10;
49914;PMS5003;35806;47.958;13.158;2023-04-28T12:43:41;10;10;
49914;PMS5003;35806;47.958;13.158;2023-04-28T12:46:07;11;11;
49914;PMS5003;35806;47.958;13.158;2023-04-28T12:48:35;11;9;
49914;PMS5003;35806;47.958;13.158;2023-04-28T12:51:03;12;10;
49914;PMS5003;35806;47.958;13.158;2023-04-28T12:53:30;10;10;
49914;PMS5003;35806;47.958;13.158;2023-04-28T12:55:57;15;15;
49914;PMS5003;35806;47.958;13.158;2023-04-28T12:58:25;12;12;
49914;PMS5003;35806;47.958;13.158;2023-04-28T13:00:52;12;10;
49914;PMS5003;35806;47.958;13.158;2023-04-28T13:03:20;11;8;
49914;PMS5003;35806;47.958;13.158;2023-04-28T13:05:47;10;8;
49914;PMS5003;35806;47.958;13.158;2023-04-28T13:08:15;44;36;
49914;PMS5003;35806;47.958;13.158;2023-04-28T13:10:42;15;15;
49914;PMS5003;35806;47.958;13.158;2023-04-28T13:13:09;16;16;
49914;PMS5003;35806;47.958;13.158;2023-04-28T13:15:36;15;14;
49914;PMS5003;35806;47.958;13.158;2023-04-28T13:18:03;13;13;
49914;PMS5003;35806;47.958;13.158;2023-04-28T13:20:31;10;10;
49914;PMS5003;35806;47.958;13.158;2023-04-28T13:22:58;9;9;
49914;PMS5003;35806;47.958;13.158;2023-04-28T13:25:26;13;9;
49914;PMS5003;35806;47.958;13.158;2023-04-28T13:27:54;9;9;
49914;PMS5003;35806;47.958;13.158;2023-04-28T13:30:21;11;11;
49914;PMS5003;35806;47.958;13.158;2023-04-28T13:32:49;15;14;
49914;PMS5003;35806;47.958;13.158;2023-04-28T13:35:16;13;10;
49914;PMS5003;35806;47.958;13.158;2023-04-28T13:37:44;9;9;
49914;PMS5003;35806;47.958;13.158;2023-04-28T13:40:12;10;9;
49914;PMS5003;35806;47.958;13.158;2023-04-28T13:42:39;9;7;
49914;PMS5003;35806;47.958;13.158;2023-04-28T13:45:07;7;6;
49914;PMS5003;35806;47.958;13.158;2023-04-28T13:47:34;6;6;
49914;PMS5003;35806;47.958;13.158;2023-04-28T13:50:01;8;7;
49914;PMS5003;35806;47.958;13.158;2023-04-28T13:52:29;6;6;
49914;PMS5003;35806;47.958;13.158;2023-04-28T13:54:56;13;13;
49914;PMS5003;35806;47.958;13.158;2023-04-28T13:57:23;8;8;
49914;PMS5003;35806;47.958;13.158;2023-04-28T13:59:50;6;6;
49914;PMS5003;35806;47.958;13.158;2023-04-28T14:02:18;4;4;
49914;PMS5003;35806;47.958;13.158;2023-04-28T14:04:45;6;6;
49914;PMS5003;35806;47.958;13.158;2023-04-28T14:07:12;2;2;
49914;PMS5003;35806;47.958;13.158;2023-04-28T14:09:39;7;5;
49914;PMS5003;35806;47.958;13.158;2023-04-28T14:12:07;7;7;
49914;PMS5003;35806;47.958;13.158;2023-04-28T14:14:35;5;5;
49914;PMS5003;35806;47.958;13.158;2023-04-28T14:17:02;8;6;
49914;PMS5003;35806;47.958;13.158;2023-04-28T14:19:30;6;6;
49914;PMS5003;35806;47.958;13.158;2023-04-28T14:21:57;4;4;
49914;PMS5003;35806;47.958;13.158;2023-04-28T14:24:25;5;5;
49914;PMS5003;35806;47.958;13.158;2023-04-28T14:26:52;7;7;
49914;PMS5003;35806;47.958;13.158;2023-04-28T14:29:20;6;5;
49914;PMS5003;35806;47.958;13.158;2023-04-28T14:31:48;6;5;
49914;PMS5003;35806;47.958;13.158;2023-04-28T14:34:16;8;8;
49914;PMS5003;35806;47.958;13.158;2023-04-28T14:36:43;5;5;
49914;PMS5003;35806;47.958;13.158;2023-04-28T14:39:11;3;3;
49914;PMS5003;35806;47.958;13.158;2023-04-28T14:41:38;8;6;
49914;PMS5003;35806;47.958;13.158;2023-04-28T14:44:06;6;5;
49914;PMS5003;35806;47.958;13.158;2023-04-28T14:46:34;9;9;
49914;PMS5003;35806;47.958;13.158;2023-04-28T14:49:02;6;6;
49914;PMS5003;35806;47.958;13.158;2023-04-28T14:51:30;5;5;
49914;PMS5003;35806;47.958;13.158;2023-04-28T14:54:02;5;5;
49914;PMS5003;35806;47.958;13.158;2023-04-28T14:56:29;4;4;
49914;PMS5003;35806;47.958;13.158;2023-04-28T14:58:57;6;5;
49914;PMS5003;35806;47.958;13.158;2023-04-28T15:01:24;4;4;
49914;PMS5003;35806;47.958;13.158;2023-04-28T15:03:52;5;5;
49914;PMS5003;35806;47.958;13.158;2023-04-28T15:06:19;4;3;
49914;PMS5003;35806;47.958;13.158;2023-04-28T15:08:47;6;6;
49914;PMS5003;35806;47.958;13.158;2023-04-28T15:11:14;4;4;
49914;PMS5003;35806;47.958;13.158;2023-04-28T15:13:42;5;5;
49914;PMS5003;35806;47.958;13.158;2023-04-28T15:16:10;4;4;
49914;PMS5003;35806;47.958;13.158;2023-04-28T15:18:37;2;2;
49914;PMS5003;35806;47.958;13.158;2023-04-28T15:21:05;6;4;
49914;PMS5003;35806;47.958;13.158;2023-04-28T15:23:32;3;3;
49914;PMS5003;35806;47.958;13.158;2023-04-28T15:26:00;4;4;
49914;PMS5003;35806;47.958;13.158;2023-04-28T15:28:27;3;3;
49914;PMS5003;35806;47.958;13.158;2023-04-28T15:30:55;2;2;
49914;PMS5003;35806;47.958;13.158;2023-04-28T15:33:22;6;4;
49914;PMS5003;35806;47.958;13.158;2023-04-28T15:35:50;5;5;
49914;PMS5003;35806;47.958;13.158;2023-04-28T15:38:17;4;4;
49914;PMS5003;35806;47.958;13.158;2023-04-28T15:40:45;4;4;
49914;PMS5003;35806;47.958;13.158;2023-04-28T15:43:12;7;7;
49914;PMS5003;35806;47.958;13.158;2023-04-28T15:45:40;3;3;
49914;PMS5003;35806;47.958;13.158;2023-04-28T15:48:09;5;5;
49914;PMS5003;35806;47.958;13.158;2023-04-28T15:50:36;3;3;
49914;PMS5003;35806;47.958;13.158;2023-04-28T15:53:04;7;4;
49914;PMS5003;35806;47.958;13.158;2023-04-28T15:55:31;4;4;
49914;PMS5003;35806;47.958;13.158;2023-04-28T15:57:59;3;3;
49914;PMS5003;35806;47.958;13.158;2023-04-28T16:00:26;4;4;
49914;PMS5003;35806;47.958;13.158;2023-04-28T16:02:54;4;4;
49914;PMS5003;35806;47.958;13.158;2023-04-28T16:05:21;3;3;
49914;PMS5003;35806;47.958;13.158;2023-04-28T16:07:49;4;4;
49914;PMS5003;35806;47.958;13.158;2023-04-28T16:10:16;7;6;
49914;PMS5003;35806;47.958;13.158;2023-04-28T16:12:44;4;3;
49914;PMS5003;35806;47.958;13.158;2023-04-28T16:15:12;6;6;
49914;PMS5003;35806;47.958;13.158;2023-04-28T16:17:39;3;3;
49914;PMS5003;35806;47.958;13.158;2023-04-28T16:20:07;7;7;
49914;PMS5003;35806;47.958;13.158;2023-04-28T16:22:38;5;4;
49914;PMS5003;35806;47.958;13.158;2023-04-28T16:25:07;9;6;
49914;PMS5003;35806;47.958;13.158;2023-04-28T16:27:35;3;3;
49914;PMS5003;35806;47.958;13.158;2023-04-28T16:30:03;4;4;
49914;PMS5003;35806;47.958;13.158;2023-04-28T16:32:31;3;3;
49914;PMS5003;35806;47.958;13.158;2023-04-28T16:34:59;6;5;